sensor_id;sensor_type;location;lat;lon;timestamp;pressure;altitude;pressure_sealevel;temperature;humidity
41515;BME280;27247;48.020;16.720;2023-02-13T00:04:10;102044.66;;;2.32;94.84
41515;BME280;27247;48.020;16.720;2023-02-13T00:08:20;102041.44;;;2.26;95.47
41515;BME280;27247;48.020;16.720;2023-02-13T00:12:30;102034.81;;;2.36;96.14
41515;BME280;27247;48.020;16.720;2023-02-13T00:16:41;102039.31;;;2.52;96.13
41515;BME280;27247;48.020;16.720;2023-02-13T00:21:03;102043.47;;;2.58;96.49
41515;BME280;27247;48.020;16.720;2023-02-13T00:25:15;102040.25;;;2.70;97.78
41515;BME280;27247;48.020;16.720;2023-02-13T00:29:25;102042.47;;;2.79;98.26
41515;BME280;27247;48.020;16.720;2023-02-13T00:33:36;102036.91;;;2.85;98.45
41515;BME280;27247;48.020;16.720;2023-02-13T00:37:46;102040.25;;;2.89;98.17
41515;BME280;27247;48.020;16.720;2023-02-13T00:41:57;102048.31;;;2.86;97.67
41515;BME280;27247;48.020;16.720;2023-02-13T00:46:07;102047.63;;;2.82;96.52
41515;BME280;27247;48.020;16.720;2023-02-13T00:50:17;102052.53;;;2.71;96.41
41515;BME280;27247;48.020;16.720;2023-02-13T00:54:28;102054.09;;;2.75;95.83
41515;BME280;27247;48.020;16.720;2023-02-13T00:58:38;102056.69;;;2.77;95.40
41515;BME280;27247;48.020;16.720;2023-02-13T01:02:48;102052.81;;;2.84;95.59
41515;BME280;27247;48.020;16.720;2023-02-13T01:06:59;102045.91;;;2.81;95.63
41515;BME280;27247;48.020;16.720;2023-02-13T01:11:09;102051.03;;;2.66;96.31
41515;BME280;27247;48.020;16.720;2023-02-13T01:15:20;102045.03;;;2.62;96.53
41515;BME280;27247;48.020;16.720;2023-02-13T01:19:30;102039.41;;;2.51;96.53
41515;BME280;27247;48.020;16.720;2023-02-13T01:23:40;102037.63;;;2.51;96.32
41515;BME280;27247;48.020;16.720;2023-02-13T01:27:51;102030.69;;;2.49;97.85
41515;BME280;27247;48.020;16.720;2023-02-13T01:32:01;102034.09;;;2.32;98.29
41515;BME280;27247;48.020;16.720;2023-02-13T01:36:14;102037.41;;;2.17;97.57
41515;BME280;27247;48.020;16.720;2023-02-13T01:40:24;102037.13;;;1.62;96.95
41515;BME280;27247;48.020;16.720;2023-02-13T01:44:56;102030.38;;;1.13;97.44
41515;BME280;27247;48.020;16.720;2023-02-13T01:49:20;102037.72;;;1.26;96.62
41515;BME280;27247;48.020;16.720;2023-02-13T01:53:38;102027.13;;;1.28;96.04
41515;BME280;27247;48.020;16.720;2023-02-13T01:58:01;102035.75;;;1.32;96.41
41515;BME280;27247;48.020;16.720;2023-02-13T02:02:14;102026.88;;;1.34;97.09
41515;BME280;27247;48.020;16.720;2023-02-13T02:06:54;102022.72;;;1.28;95.60
41515;BME280;27247;48.020;16.720;2023-02-13T02:11:21;102030.00;;;1.22;95.91
41515;BME280;27247;48.020;16.720;2023-02-13T02:15:34;102029.44;;;1.14;95.93
41515;BME280;27247;48.020;16.720;2023-02-13T02:38:05;102029.97;;;1.00;95.88
41515;BME280;27247;48.020;16.720;2023-02-13T02:42:29;102029.34;;;0.93;96.55
41515;BME280;27247;48.020;16.720;2023-02-13T02:46:55;102012.03;;;0.88;97.73
41515;BME280;27247;48.020;16.720;2023-02-13T02:55:55;102011.75;;;0.72;99.32
41515;BME280;27247;48.020;16.720;2023-02-13T03:00:10;102001.97;;;0.76;99.94
41515;BME280;27247;48.020;16.720;2023-02-13T03:04:42;102005.78;;;0.90;100.00
41515;BME280;27247;48.020;16.720;2023-02-13T03:09:15;102005.59;;;0.95;98.30
41515;BME280;27247;48.020;16.720;2023-02-13T03:13:47;102010.63;;;1.01;99.63
41515;BME280;27247;48.020;16.720;2023-02-13T03:17:59;102015.09;;;0.99;100.00
41515;BME280;27247;48.020;16.720;2023-02-13T03:22:59;102028.78;;;0.85;98.24
41515;BME280;27247;48.020;16.720;2023-02-13T03:32:08;102019.47;;;0.77;99.30
41515;BME280;27247;48.020;16.720;2023-02-13T03:36:41;102006.38;;;0.75;100.00
41515;BME280;27247;48.020;16.720;2023-02-13T03:45:30;102009.09;;;0.50;99.16
41515;BME280;27247;48.020;16.720;2023-02-13T03:50:01;102003.53;;;0.58;98.31
41515;BME280;27247;48.020;16.720;2023-02-13T03:55:13;102005.22;;;0.37;99.03
41515;BME280;27247;48.020;16.720;2023-02-13T03:59:23;102003.03;;;0.48;100.00
41515;BME280;27247;48.020;16.720;2023-02-13T04:07:49;102012.25;;;0.82;100.00
41515;BME280;27247;48.020;16.720;2023-02-13T04:16:34;102014.84;;;0.83;100.00
41515;BME280;27247;48.020;16.720;2023-02-13T04:20:46;102012.75;;;0.70;100.00
41515;BME280;27247;48.020;16.720;2023-02-13T04:24:57;102005.47;;;0.76;100.00
41515;BME280;27247;48.020;16.720;2023-02-13T04:29:08;102005.16;;;0.84;100.00
41515;BME280;27247;48.020;16.720;2023-02-13T04:33:18;102008.69;;;1.06;100.00
41515;BME280;27247;48.020;16.720;2023-02-13T04:37:29;102009.63;;;1.05;100.00
41515;BME280;27247;48.020;16.720;2023-02-13T04:41:39;102007.53;;;1.13;100.00
41515;BME280;27247;48.020;16.720;2023-02-13T04:45:50;102009.53;;;1.28;100.00
41515;BME280;27247;48.020;16.720;2023-02-13T04:50:00;102006.78;;;1.32;100.00
41515;BME280;27247;48.020;16.720;2023-02-13T04:54:11;102009.63;;;1.47;100.00
41515;BME280;27247;48.020;16.720;2023-02-13T04:58:21;101999.63;;;1.55;100.00
41515;BME280;27247;48.020;16.720;2023-02-13T05:02:32;101999.50;;;1.58;100.00
41515;BME280;27247;48.020;16.720;2023-02-13T05:06:42;101992.84;;;1.70;100.00
41515;BME280;27247;48.020;16.720;2023-02-13T05:10:52;101980.59;;;1.69;100.00
41515;BME280;27247;48.020;16.720;2023-02-13T05:15:04;101981.91;;;1.79;100.00
41515;BME280;27247;48.020;16.720;2023-02-13T05:19:15;101984.16;;;1.88;100.00
41515;BME280;27247;48.020;16.720;2023-02-13T05:23:26;101982.31;;;1.90;100.00
41515;BME280;27247;48.020;16.720;2023-02-13T05:27:36;101986.66;;;1.91;100.00
41515;BME280;27247;48.020;16.720;2023-02-13T05:31:51;101998.44;;;2.03;100.00
41515;BME280;27247;48.020;16.720;2023-02-13T05:36:02;101992.84;;;1.90;100.00
41515;BME280;27247;48.020;16.720;2023-02-13T05:40:13;102004.31;;;1.69;99.94
41515;BME280;27247;48.020;16.720;2023-02-13T05:44:24;101998.25;;;1.67;99.84
41515;BME280;27247;48.020;16.720;2023-02-13T05:48:35;102009.44;;;1.92;99.35
41515;BME280;27247;48.020;16.720;2023-02-13T05:52:45;102007.47;;;1.98;99.34
41515;BME280;27247;48.020;16.720;2023-02-13T05:56:55;102010.09;;;1.98;98.94
41515;BME280;27247;48.020;16.720;2023-02-13T06:01:06;102008.00;;;2.06;99.61
41515;BME280;27247;48.020;16.720;2023-02-13T06:05:16;102013.69;;;2.17;98.49
41515;BME280;27247;48.020;16.720;2023-02-13T06:09:27;102015.13;;;2.24;98.26
41515;BME280;27247;48.020;16.720;2023-02-13T06:13:37;102010.25;;;2.15;97.93
41515;BME280;27247;48.020;16.720;2023-02-13T06:17:49;102020.31;;;2.05;97.86
41515;BME280;27247;48.020;16.720;2023-02-13T06:22:00;102013.47;;;2.01;98.55
41515;BME280;27247;48.020;16.720;2023-02-13T06:26:10;102031.13;;;1.99;98.42
41515;BME280;27247;48.020;16.720;2023-02-13T06:30:20;102030.75;;;1.88;98.61
41515;BME280;27247;48.020;16.720;2023-02-13T06:34:31;102034.22;;;1.88;99.04
41515;BME280;27247;48.020;16.720;2023-02-13T06:38:41;102025.72;;;2.02;98.23
41515;BME280;27247;48.020;16.720;2023-02-13T06:42:52;102034.28;;;2.07;98.30
41515;BME280;27247;48.020;16.720;2023-02-13T06:47:02;102029.56;;;2.15;98.90
41515;BME280;27247;48.020;16.720;2023-02-13T06:51:12;102037.00;;;2.26;97.90
41515;BME280;27247;48.020;16.720;2023-02-13T06:55:23;102040.69;;;2.22;98.13
41515;BME280;27247;48.020;16.720;2023-02-13T06:59:33;102044.44;;;2.37;98.20
41515;BME280;27247;48.020;16.720;2023-02-13T07:03:44;102031.97;;;2.40;97.17
41515;BME280;27247;48.020;16.720;2023-02-13T07:07:55;102042.25;;;2.46;96.04
41515;BME280;27247;48.020;16.720;2023-02-13T07:12:05;102046.09;;;2.39;96.02
41515;BME280;27247;48.020;16.720;2023-02-13T07:16:16;102047.81;;;2.20;97.25
41515;BME280;27247;48.020;16.720;2023-02-13T07:20:27;102053.75;;;2.25;97.07
41515;BME280;27247;48.020;16.720;2023-02-13T07:24:37;102052.97;;;2.23;97.07
41515;BME280;27247;48.020;16.720;2023-02-13T07:28:48;102063.31;;;2.28;98.12
41515;BME280;27247;48.020;16.720;2023-02-13T07:33:00;102053.47;;;2.31;98.32
41515;BME280;27247;48.020;16.720;2023-02-13T07:37:10;102060.34;;;2.35;98.27
41515;BME280;27247;48.020;16.720;2023-02-13T07:41:20;102064.22;;;2.47;97.49
41515;BME280;27247;48.020;16.720;2023-02-13T07:45:35;102062.94;;;2.55;96.96
41515;BME280;27247;48.020;16.720;2023-02-13T07:49:45;102061.00;;;2.59;96.58
41515;BME280;27247;48.020;16.720;2023-02-13T07:53:55;102060.59;;;2.68;96.33
41515;BME280;27247;48.020;16.720;2023-02-13T07:58:06;102069.22;;;2.72;95.56
41515;BME280;27247;48.020;16.720;2023-02-13T08:02:16;102064.94;;;2.69;95.02
41515;BME280;27247;48.020;16.720;2023-02-13T08:06:26;102070.94;;;2.73;95.44
41515;BME280;27247;48.020;16.720;2023-02-13T08:10:39;102068.81;;;2.81;94.87
41515;BME280;27247;48.020;16.720;2023-02-13T08:15:11;102070.50;;;2.82;94.81
41515;BME280;27247;48.020;16.720;2023-02-13T08:19:21;102067.72;;;2.85;94.57
41515;BME280;27247;48.020;16.720;2023-02-13T08:23:32;102062.66;;;2.80;93.73
41515;BME280;27247;48.020;16.720;2023-02-13T08:27:42;102070.94;;;2.92;92.83
41515;BME280;27247;48.020;16.720;2023-02-13T08:31:52;102067.22;;;2.96;93.26
41515;BME280;27247;48.020;16.720;2023-02-13T08:36:03;102065.16;;;3.02;93.61
41515;BME280;27247;48.020;16.720;2023-02-13T08:40:13;102066.00;;;3.03;93.25
41515;BME280;27247;48.020;16.720;2023-02-13T08:44:24;102060.66;;;3.04;93.30
41515;BME280;27247;48.020;16.720;2023-02-13T08:48:34;102074.41;;;3.12;93.55
41515;BME280;27247;48.020;16.720;2023-02-13T08:52:45;102067.72;;;3.04;93.59
41515;BME280;27247;48.020;16.720;2023-02-13T08:56:55;102066.50;;;3.11;93.69
41515;BME280;27247;48.020;16.720;2023-02-13T09:01:07;102067.31;;;3.13;93.54
41515;BME280;27247;48.020;16.720;2023-02-13T09:05:17;102075.19;;;3.14;93.95
41515;BME280;27247;48.020;16.720;2023-02-13T09:09:28;102066.25;;;3.17;93.73
41515;BME280;27247;48.020;16.720;2023-02-13T09:13:38;102065.81;;;3.26;93.52
41515;BME280;27247;48.020;16.720;2023-02-13T09:17:49;102066.66;;;3.27;93.53
41515;BME280;27247;48.020;16.720;2023-02-13T09:21:59;102074.28;;;3.33;93.10
41515;BME280;27247;48.020;16.720;2023-02-13T09:26:12;102069.56;;;3.39;93.15
41515;BME280;27247;48.020;16.720;2023-02-13T09:30:23;102067.78;;;3.40;93.31
41515;BME280;27247;48.020;16.720;2023-02-13T09:34:33;102077.53;;;3.57;92.94
41515;BME280;27247;48.020;16.720;2023-02-13T09:38:44;102081.03;;;3.57;93.16
41515;BME280;27247;48.020;16.720;2023-02-13T09:43:09;102073.03;;;3.59;92.89
41515;BME280;27247;48.020;16.720;2023-02-13T09:47:36;102080.50;;;3.68;93.15
41515;BME280;27247;48.020;16.720;2023-02-13T09:51:53;102079.34;;;3.73;92.96
41515;BME280;27247;48.020;16.720;2023-02-13T09:56:19;102086.34;;;3.74;93.27
41515;BME280;27247;48.020;16.720;2023-02-13T10:00:36;102080.03;;;3.77;92.91
41515;BME280;27247;48.020;16.720;2023-02-13T10:04:59;102082.75;;;3.75;92.97
41515;BME280;27247;48.020;16.720;2023-02-13T10:17:56;102082.06;;;3.89;92.30
41515;BME280;27247;48.020;16.720;2023-02-13T10:22:24;102086.50;;;3.89;92.49
41515;BME280;27247;48.020;16.720;2023-02-13T10:26:38;102085.41;;;3.93;92.15
41515;BME280;27247;48.020;16.720;2023-02-13T10:30:55;102084.63;;;3.91;92.30
41515;BME280;27247;48.020;16.720;2023-02-13T10:35:28;102079.66;;;4.02;92.23
41515;BME280;27247;48.020;16.720;2023-02-13T10:39:42;102078.31;;;4.10;91.68
41515;BME280;27247;48.020;16.720;2023-02-13T10:48:37;102054.34;;;4.13;92.53
41515;BME280;27247;48.020;16.720;2023-02-13T11:06:14;102056.31;;;4.27;92.68
41515;BME280;27247;48.020;16.720;2023-02-13T11:10:26;102042.50;;;4.38;93.37
41515;BME280;27247;48.020;16.720;2023-02-13T11:14:37;102048.34;;;4.44;93.91
41515;BME280;27247;48.020;16.720;2023-02-13T11:18:49;102049.88;;;4.48;94.36
41515;BME280;27247;48.020;16.720;2023-02-13T11:27:35;102050.75;;;4.49;94.30
41515;BME280;27247;48.020;16.720;2023-02-13T11:36:31;102038.97;;;4.70;95.14
41515;BME280;27247;48.020;16.720;2023-02-13T11:40:43;102031.81;;;4.72;95.40
41515;BME280;27247;48.020;16.720;2023-02-13T11:49:22;102033.09;;;4.97;95.55
41515;BME280;27247;48.020;16.720;2023-02-13T11:53:38;102033.53;;;5.05;95.43
41515;BME280;27247;48.020;16.720;2023-02-13T12:06:34;102017.53;;;5.38;94.28
41515;BME280;27247;48.020;16.720;2023-02-13T12:10:48;102020.91;;;5.56;92.77
41515;BME280;27247;48.020;16.720;2023-02-13T12:15:01;102020.88;;;5.71;92.86
41515;BME280;27247;48.020;16.720;2023-02-13T12:19:18;102016.72;;;5.82;92.59
41515;BME280;27247;48.020;16.720;2023-02-13T12:23:48;102013.56;;;5.91;92.39
41515;BME280;27247;48.020;16.720;2023-02-13T12:28:13;101999.81;;;5.98;91.87
41515;BME280;27247;48.020;16.720;2023-02-13T13:00:17;101972.41;;;6.69;88.00
41515;BME280;27247;48.020;16.720;2023-02-13T13:08:39;101962.91;;;6.79;86.74
41515;BME280;27247;48.020;16.720;2023-02-13T13:13:08;101957.78;;;6.76;85.33
41515;BME280;27247;48.020;16.720;2023-02-13T13:26:34;101952.69;;;6.73;86.26
41515;BME280;27247;48.020;16.720;2023-02-13T13:30:46;101947.72;;;6.81;86.38
41515;BME280;27247;48.020;16.720;2023-02-13T13:34:58;101950.97;;;7.65;85.86
41515;BME280;27247;48.020;16.720;2023-02-13T13:39:26;101947.38;;;8.43;80.19
41515;BME280;27247;48.020;16.720;2023-02-13T13:48:15;101937.09;;;9.69;74.67
41515;BME280;27247;48.020;16.720;2023-02-13T13:52:35;101936.97;;;9.81;71.61
41515;BME280;27247;48.020;16.720;2023-02-13T14:09:42;101929.31;;;9.66;72.67
41515;BME280;27247;48.020;16.720;2023-02-13T14:13:52;101927.44;;;9.20;73.98
41515;BME280;27247;48.020;16.720;2023-02-13T14:18:18;101916.97;;;9.06;73.76
41515;BME280;27247;48.020;16.720;2023-02-13T14:22:33;101929.16;;;8.73;73.90
41515;BME280;27247;48.020;16.720;2023-02-13T14:26:52;101923.31;;;8.68;75.90
41515;BME280;27247;48.020;16.720;2023-02-13T14:31:15;101921.53;;;8.56;76.54
41515;BME280;27247;48.020;16.720;2023-02-13T14:35:34;101920.28;;;8.49;74.69
41515;BME280;27247;48.020;16.720;2023-02-13T14:44:44;101920.16;;;8.25;71.91
41515;BME280;27247;48.020;16.720;2023-02-13T14:49:02;101917.72;;;8.22;71.67
41515;BME280;27247;48.020;16.720;2023-02-13T14:53:23;101915.59;;;8.14;72.44
41515;BME280;27247;48.020;16.720;2023-02-13T14:57:42;101920.50;;;8.08;72.25
41515;BME280;27247;48.020;16.720;2023-02-13T15:02:00;101913.59;;;7.92;71.90
41515;BME280;27247;48.020;16.720;2023-02-13T15:06:33;101915.41;;;7.92;71.97
41515;BME280;27247;48.020;16.720;2023-02-13T15:10:50;101910.94;;;7.92;72.02
41515;BME280;27247;48.020;16.720;2023-02-13T15:15:16;101909.66;;;7.85;71.93
41515;BME280;27247;48.020;16.720;2023-02-13T15:19:33;101905.31;;;7.84;72.43
41515;BME280;27247;48.020;16.720;2023-02-13T15:23:49;101908.59;;;7.75;72.89
41515;BME280;27247;48.020;16.720;2023-02-13T15:28:02;101911.25;;;7.62;73.15
41515;BME280;27247;48.020;16.720;2023-02-13T15:32:17;101916.47;;;7.64;72.42
41515;BME280;27247;48.020;16.720;2023-02-13T15:36:39;101915.72;;;7.62;72.11
41515;BME280;27247;48.020;16.720;2023-02-13T15:40:51;101912.53;;;7.44;72.84
41515;BME280;27247;48.020;16.720;2023-02-13T15:45:04;101915.19;;;7.44;73.52
41515;BME280;27247;48.020;16.720;2023-02-13T15:49:17;101910.28;;;7.38;73.38
41515;BME280;27247;48.020;16.720;2023-02-13T15:53:29;101914.47;;;7.28;74.03
41515;BME280;27247;48.020;16.720;2023-02-13T15:57:40;101907.06;;;7.33;72.91
41515;BME280;27247;48.020;16.720;2023-02-13T16:01:50;101913.09;;;7.22;73.31
41515;BME280;27247;48.020;16.720;2023-02-13T16:06:04;101914.25;;;7.18;72.96
41515;BME280;27247;48.020;16.720;2023-02-13T16:10:33;101923.81;;;7.21;73.09
41515;BME280;27247;48.020;16.720;2023-02-13T16:15:05;101929.09;;;7.08;73.07
41515;BME280;27247;48.020;16.720;2023-02-13T16:19:26;101919.19;;;6.97;73.52
41515;BME280;27247;48.020;16.720;2023-02-13T16:23:37;101925.16;;;7.01;73.51
41515;BME280;27247;48.020;16.720;2023-02-13T16:32:16;101922.25;;;6.91;72.94
41515;BME280;27247;48.020;16.720;2023-02-13T16:36:33;101922.91;;;6.95;73.17
41515;BME280;27247;48.020;16.720;2023-02-13T16:40:43;101921.84;;;6.97;73.17
41515;BME280;27247;48.020;16.720;2023-02-13T16:45:19;101913.53;;;6.89;73.78
41515;BME280;27247;48.020;16.720;2023-02-13T16:49:35;101911.47;;;6.80;74.30
41515;BME280;27247;48.020;16.720;2023-02-13T16:53:47;101921.00;;;6.70;74.01
41515;BME280;27247;48.020;16.720;2023-02-13T16:58:05;101912.41;;;6.79;73.58
41515;BME280;27247;48.020;16.720;2023-02-13T17:02:24;101921.84;;;6.70;73.82
41515;BME280;27247;48.020;16.720;2023-02-13T17:06:36;101922.91;;;6.68;74.51
41515;BME280;27247;48.020;16.720;2023-02-13T17:11:02;101913.13;;;6.68;74.11
41515;BME280;27247;48.020;16.720;2023-02-13T17:15:16;101904.50;;;6.65;74.28
41515;BME280;27247;48.020;16.720;2023-02-13T17:19:27;101904.66;;;6.76;74.72
41515;BME280;27247;48.020;16.720;2023-02-13T17:23:40;101911.66;;;6.77;74.62
41515;BME280;27247;48.020;16.720;2023-02-13T17:27:53;101898.88;;;6.69;74.86
41515;BME280;27247;48.020;16.720;2023-02-13T17:32:04;101905.75;;;6.59;75.65
41515;BME280;27247;48.020;16.720;2023-02-13T17:36:15;101896.16;;;6.57;75.88
41515;BME280;27247;48.020;16.720;2023-02-13T17:40:26;101898.66;;;6.46;76.31
41515;BME280;27247;48.020;16.720;2023-02-13T17:44:39;101895.16;;;6.45;76.08
41515;BME280;27247;48.020;16.720;2023-02-13T17:48:50;101898.56;;;6.47;76.61
41515;BME280;27247;48.020;16.720;2023-02-13T17:53:10;101898.19;;;6.53;75.94
41515;BME280;27247;48.020;16.720;2023-02-13T17:57:24;101895.91;;;6.47;76.70
41515;BME280;27247;48.020;16.720;2023-02-13T18:01:35;101886.94;;;6.35;77.19
41515;BME280;27247;48.020;16.720;2023-02-13T18:05:49;101890.72;;;6.31;77.14
41515;BME280;27247;48.020;16.720;2023-02-13T18:10:00;101891.19;;;6.38;77.42
41515;BME280;27247;48.020;16.720;2023-02-13T18:14:11;101894.22;;;6.46;77.42
41515;BME280;27247;48.020;16.720;2023-02-13T18:18:21;101885.78;;;6.39;77.40
41515;BME280;27247;48.020;16.720;2023-02-13T18:22:32;101868.50;;;6.47;77.27
41515;BME280;27247;48.020;16.720;2023-02-13T18:26:43;101860.75;;;6.44;78.18
41515;BME280;27247;48.020;16.720;2023-02-13T18:30:53;101870.84;;;6.24;79.97
41515;BME280;27247;48.020;16.720;2023-02-13T18:35:06;101873.66;;;6.21;80.61
41515;BME280;27247;48.020;16.720;2023-02-13T18:39:17;101860.31;;;6.08;80.72
41515;BME280;27247;48.020;16.720;2023-02-13T18:43:28;101860.78;;;6.01;81.39
41515;BME280;27247;48.020;16.720;2023-02-13T18:47:39;101861.38;;;5.92;81.48
41515;BME280;27247;48.020;16.720;2023-02-13T18:51:50;101853.84;;;5.84;81.85
41515;BME280;27247;48.020;16.720;2023-02-13T18:56:05;101858.31;;;5.84;82.07
41515;BME280;27247;48.020;16.720;2023-02-13T19:00:16;101866.47;;;5.95;82.22
41515;BME280;27247;48.020;16.720;2023-02-13T19:04:28;101862.38;;;5.75;83.02
41515;BME280;27247;48.020;16.720;2023-02-13T19:08:39;101869.09;;;5.81;83.02
41515;BME280;27247;48.020;16.720;2023-02-13T19:12:50;101858.41;;;5.68;84.83
41515;BME280;27247;48.020;16.720;2023-02-13T19:17:01;101860.56;;;5.61;85.53
41515;BME280;27247;48.020;16.720;2023-02-13T19:21:13;101855.94;;;5.65;85.52
41515;BME280;27247;48.020;16.720;2023-02-13T19:25:25;101854.69;;;5.56;85.79
41515;BME280;27247;48.020;16.720;2023-02-13T19:29:36;101844.28;;;5.53;86.66
41515;BME280;27247;48.020;16.720;2023-02-13T19:33:47;101846.72;;;5.42;87.20
41515;BME280;27247;48.020;16.720;2023-02-13T19:38:00;101845.69;;;5.30;87.99
41515;BME280;27247;48.020;16.720;2023-02-13T19:42:12;101845.09;;;5.25;88.05
41515;BME280;27247;48.020;16.720;2023-02-13T19:46:25;101852.97;;;5.27;87.45
41515;BME280;27247;48.020;16.720;2023-02-13T19:50:36;101836.69;;;5.33;87.29
41515;BME280;27247;48.020;16.720;2023-02-13T19:54:48;101836.59;;;5.34;88.01
41515;BME280;27247;48.020;16.720;2023-02-13T19:58:59;101843.03;;;5.30;87.76
41515;BME280;27247;48.020;16.720;2023-02-13T20:03:10;101836.88;;;5.30;87.51
41515;BME280;27247;48.020;16.720;2023-02-13T20:07:21;101843.03;;;5.30;87.37
41515;BME280;27247;48.020;16.720;2023-02-13T20:11:32;101843.13;;;5.29;86.84
41515;BME280;27247;48.020;16.720;2023-02-13T20:15:43;101840.69;;;5.40;86.09
41515;BME280;27247;48.020;16.720;2023-02-13T20:19:54;101834.78;;;5.21;86.54
41515;BME280;27247;48.020;16.720;2023-02-13T20:24:05;101841.88;;;5.20;86.59
41515;BME280;27247;48.020;16.720;2023-02-13T20:28:16;101839.84;;;5.09;87.37
41515;BME280;27247;48.020;16.720;2023-02-13T20:32:27;101838.34;;;5.20;86.95
41515;BME280;27247;48.020;16.720;2023-02-13T20:36:37;101840.00;;;5.22;87.02
41515;BME280;27247;48.020;16.720;2023-02-13T20:40:48;101841.94;;;5.19;87.88
41515;BME280;27247;48.020;16.720;2023-02-13T20:45:01;101844.34;;;5.23;87.16
41515;BME280;27247;48.020;16.720;2023-02-13T20:49:11;101858.25;;;5.27;86.51
41515;BME280;27247;48.020;16.720;2023-02-13T20:53:29;101850.50;;;5.24;86.20
41515;BME280;27247;48.020;16.720;2023-02-13T20:57:40;101849.28;;;5.29;85.76
41515;BME280;27247;48.020;16.720;2023-02-13T21:01:51;101852.03;;;5.28;85.88
41515;BME280;27247;48.020;16.720;2023-02-13T21:06:04;101851.44;;;5.23;85.59
41515;BME280;27247;48.020;16.720;2023-02-13T21:10:17;101823.34;;;5.34;84.99
41515;BME280;27247;48.020;16.720;2023-02-13T21:14:29;101824.38;;;5.32;85.92
41515;BME280;27247;48.020;16.720;2023-02-13T21:18:41;101832.03;;;5.22;85.98
41515;BME280;27247;48.020;16.720;2023-02-13T21:22:52;101829.53;;;5.19;86.21
41515;BME280;27247;48.020;16.720;2023-02-13T21:27:03;101834.03;;;5.03;87.02
41515;BME280;27247;48.020;16.720;2023-02-13T21:31:20;101828.44;;;4.93;87.15
41515;BME280;27247;48.020;16.720;2023-02-13T21:35:33;101832.03;;;4.92;87.67
41515;BME280;27247;48.020;16.720;2023-02-13T21:39:43;101828.31;;;4.80;87.57
41515;BME280;27247;48.020;16.720;2023-02-13T21:43:54;101830.41;;;4.90;87.11
41515;BME280;27247;48.020;16.720;2023-02-13T21:48:04;101823.94;;;4.79;87.58
41515;BME280;27247;48.020;16.720;2023-02-13T21:52:15;101842.41;;;4.81;87.24
41515;BME280;27247;48.020;16.720;2023-02-13T21:56:31;101848.50;;;4.67;87.90
41515;BME280;27247;48.020;16.720;2023-02-13T22:00:42;101845.75;;;4.69;87.55
41515;BME280;27247;48.020;16.720;2023-02-13T22:04:52;101852.09;;;4.51;88.02
41515;BME280;27247;48.020;16.720;2023-02-13T22:09:11;101856.56;;;4.34;87.75
41515;BME280;27247;48.020;16.720;2023-02-13T22:13:22;101868.50;;;4.26;88.13
41515;BME280;27247;48.020;16.720;2023-02-13T22:17:33;101866.00;;;4.07;88.75
41515;BME280;27247;48.020;16.720;2023-02-13T22:21:45;101859.44;;;4.14;88.38
41515;BME280;27247;48.020;16.720;2023-02-13T22:25:56;101864.13;;;4.09;88.30
41515;BME280;27247;48.020;16.720;2023-02-13T22:30:06;101859.34;;;4.00;87.97
41515;BME280;27247;48.020;16.720;2023-02-13T22:34:17;101866.06;;;3.90;87.54
41515;BME280;27247;48.020;16.720;2023-02-13T22:38:31;101868.66;;;3.74;88.00
41515;BME280;27247;48.020;16.720;2023-02-13T22:42:42;101868.94;;;3.52;89.03
41515;BME280;27247;48.020;16.720;2023-02-13T22:46:52;101875.09;;;3.52;88.87
41515;BME280;27247;48.020;16.720;2023-02-13T22:51:08;101865.63;;;3.48;88.50
41515;BME280;27247;48.020;16.720;2023-02-13T22:55:19;101862.06;;;3.32;87.75
41515;BME280;27247;48.020;16.720;2023-02-13T22:59:29;101883.06;;;3.18;88.56
41515;BME280;27247;48.020;16.720;2023-02-13T23:03:45;101894.91;;;3.09;89.14
41515;BME280;27247;48.020;16.720;2023-02-13T23:07:55;101889.94;;;3.03;88.84
41515;BME280;27247;48.020;16.720;2023-02-13T23:12:06;101890.63;;;2.89;89.08
41515;BME280;27247;48.020;16.720;2023-02-13T23:16:37;101886.16;;;2.73;88.86
41515;BME280;27247;48.020;16.720;2023-02-13T23:21:06;101885.06;;;2.60;90.32
41515;BME280;27247;48.020;16.720;2023-02-13T23:25:17;101886.66;;;2.45;90.52
41515;BME280;27247;48.020;16.720;2023-02-13T23:29:27;101880.03;;;2.36;90.91
41515;BME280;27247;48.020;16.720;2023-02-13T23:33:38;101883.81;;;2.31;92.18
41515;BME280;27247;48.020;16.720;2023-02-13T23:37:48;101877.53;;;2.33;92.15
41515;BME280;27247;48.020;16.720;2023-02-13T23:41:58;101867.13;;;2.30;91.71
41515;BME280;27247;48.020;16.720;2023-02-13T23:46:09;101868.53;;;2.37;91.41
41515;BME280;27247;48.020;16.720;2023-02-13T23:50:19;101853.94;;;2.30;91.14
41515;BME280;27247;48.020;16.720;2023-02-13T23:54:29;101847.59;;;2.34;90.78
41515;BME280;27247;48.020;16.720;2023-02-13T23:58:40;101845.25;;;2.28;90.34
